createdAt,value
2022-11-12T06:16:00.162Z,1024.45
2022-11-12T06:26:00.084Z,1024.41
2022-11-12T06:36:00.124Z,1024.39
2022-11-12T06:46:00.239Z,1024.53
2022-11-12T06:56:00.220Z,1024.53
2022-11-12T07:06:00.169Z,1024.64
2022-11-12T07:16:00.261Z,1024.70
2022-11-12T07:26:00.225Z,1024.63
2022-11-12T07:36:00.212Z,1024.56
2022-11-12T07:46:00.267Z,1024.80
2022-11-12T07:56:00.288Z,1024.71
2022-11-12T08:06:00.317Z,1024.64
2022-11-12T08:16:00.199Z,1024.60
2022-11-12T08:26:00.213Z,1024.78
2022-11-12T08:36:00.432Z,1025.35
2022-11-12T08:46:00.401Z,1025.30
2022-11-12T08:56:00.608Z,1025.57
2022-11-12T09:06:00.771Z,1025.53
2022-11-12T09:16:00.738Z,1025.40
2022-11-12T09:26:00.863Z,1025.56
2022-11-12T09:36:00.799Z,1025.61
2022-11-12T09:46:26.258Z,1025.57
2022-11-12T09:56:00.852Z,1025.78
2022-11-12T10:06:00.762Z,1025.55
2022-11-12T10:16:00.982Z,1025.45
2022-11-12T10:26:01.001Z,1025.39
2022-11-12T10:36:00.728Z,1025.33
2022-11-12T10:46:00.890Z,1025.21
2022-11-12T10:56:00.798Z,1025.23
2022-11-12T11:06:00.782Z,1025.28
2022-11-12T11:16:00.817Z,1025.20
2022-11-12T11:26:00.977Z,1025.02
2022-11-12T11:36:00.863Z,1025.03
2022-11-12T11:46:01.026Z,1024.92
2022-11-12T11:56:00.891Z,1024.80
2022-11-12T12:06:01.056Z,1024.70
2022-11-12T12:16:00.890Z,1024.70
2022-11-12T12:26:01.049Z,1024.62
2022-11-12T12:36:01.012Z,1024.50
2022-11-12T12:46:01.016Z,1024.43
2022-11-12T12:56:00.848Z,1024.36
2022-11-12T13:06:00.892Z,1024.28
2022-11-12T13:16:01.155Z,1024.34
2022-11-12T13:26:01.278Z,1024.39
2022-11-12T13:36:01.263Z,1024.26
2022-11-12T13:46:01.358Z,1024.20
2022-11-12T13:56:01.325Z,1024.25
2022-11-12T14:06:01.309Z,1024.11
2022-11-12T14:16:01.298Z,1024.17
2022-11-12T14:26:01.465Z,1024.07
2022-11-12T14:36:01.268Z,1023.91
2022-11-12T14:46:01.321Z,1023.99
2022-11-12T14:56:01.248Z,1023.95
2022-11-12T15:06:01.285Z,1024.03
2022-11-12T15:16:01.322Z,1023.97
2022-11-12T15:26:01.366Z,1024.06
2022-11-12T15:36:01.439Z,1024.14
2022-11-12T15:46:01.400Z,1024.07
2022-11-12T15:56:01.521Z,1024.10
2022-11-12T16:06:07.201Z,1024.13
2022-11-12T16:16:01.385Z,1024.05
2022-11-12T16:26:01.499Z,1023.86
2022-11-12T16:36:01.480Z,1023.89
2022-11-12T16:46:01.380Z,1023.98
2022-11-12T16:56:01.488Z,1023.95
2022-11-12T17:06:01.391Z,1023.80
2022-11-12T17:16:01.475Z,1023.95
2022-11-12T17:26:01.435Z,1023.90
2022-11-12T17:36:01.408Z,1023.72
2022-11-12T17:46:01.491Z,1023.72
2022-11-12T17:56:01.378Z,1023.70
2022-11-12T18:06:01.531Z,1023.76
2022-11-12T18:16:01.510Z,1023.59
2022-11-12T18:26:01.427Z,1023.51
2022-11-12T18:36:01.440Z,1023.61
2022-11-12T18:46:01.500Z,1023.53
2022-11-12T18:56:01.517Z,1023.48
2022-11-12T19:06:01.514Z,1023.32
2022-11-12T19:16:01.524Z,1023.30
